Map

Track Data

SID SEASON NUMBER BASIN SUBBASIN NAME ISO_TIME NATURE LAT LON WMO_WIND WMO_PRES WMO_AGENCY TRACK_TYPE DIST2LAND LANDFALL IFLAG USA_AGENCY USA_ATCF_ID USA_LAT USA_LON USA_RECORD USA_STATUS USA_WIND USA_PRES USA_SSHS USA_R34_NE USA_R34_SE USA_R34_SW USA_R34_NW USA_R50_NE USA_R50_SE USA_R50_SW USA_R50_NW USA_R64_NE USA_R64_SE USA_R64_SW USA_R64_NW USA_POCI USA_ROCI USA_RMW USA_EYE TOKYO_LAT TOKYO_LON TOKYO_GRADE TOKYO_WIND TOKYO_PRES TOKYO_R50_DIR TOKYO_R50_LONG TOKYO_R50_SHORT TOKYO_R30_DIR TOKYO_R30_LONG TOKYO_R30_SHORT TOKYO_LAND CMA_LAT CMA_LON CMA_CAT CMA_WIND CMA_PRES HKO_LAT HKO_LON HKO_CAT HKO_WIND HKO_PRES NEWDELHI_LAT NEWDELHI_LON NEWDELHI_GRADE NEWDELHI_WIND NEWDELHI_PRES NEWDELHI_CI NEWDELHI_DP NEWDELHI_POCI REUNION_LAT REUNION_LON REUNION_TYPE REUNION_WIND REUNION_PRES REUNION_TNUM REUNION_CI REUNION_RMW REUNION_R34_NE REUNION_R34_SE REUNION_R34_SW REUNION_R34_NW REUNION_R50_NE REUNION_R50_SE REUNION_R50_SW REUNION_R50_NW REUNION_R64_NE REUNION_R64_SE REUNION_R64_SW REUNION_R64_NW BOM_LAT BOM_LON BOM_TYPE BOM_WIND BOM_PRES BOM_TNUM BOM_CI BOM_RMW BOM_R34_NE BOM_R34_SE BOM_R34_SW BOM_R34_NW BOM_R50_NE BOM_R50_SE BOM_R50_SW BOM_R50_NW BOM_R64_NE BOM_R64_SE BOM_R64_SW BOM_R64_NW BOM_ROCI BOM_POCI BOM_EYE BOM_POS_METHOD BOM_PRES_METHOD NADI_LAT NADI_LON NADI_CAT NADI_WIND NADI_PRES WELLINGTON_LAT WELLINGTON_LON WELLINGTON_WIND WELLINGTON_PRES DS824_LAT DS824_LON DS824_STAGE DS824_WIND DS824_PRES TD9636_LAT TD9636_LON TD9636_STAGE TD9636_WIND TD9636_PRES TD9635_LAT TD9635_LON TD9635_WIND TD9635_PRES TD9635_ROCI NEUMANN_LAT NEUMANN_LON NEUMANN_CLASS NEUMANN_WIND NEUMANN_PRES MLC_LAT MLC_LON MLC_CLASS MLC_WIND MLC_PRES USA_GUST BOM_GUST BOM_GUST_PER REUNION_GUST REUNION_GUST_PER USA_SEAHGT USA_SEARAD_NE USA_SEARAD_SE USA_SEARAD_SW USA_SEARAD_NW STORM_SPEED STORM_DIR
2000266N12337 2000 88 NA NA ISAAC 2000-09-21 12:00:00 TS 11.5000 -23.0000 30 1008 hurdat_atl main 682 682 O_____________ hurdat_atl AL132000 11.5000 -23.0000 TD 30 1008 -1 15 285
2000266N12337 2000 88 NA NA ISAAC 2000-09-21 15:00:00 TS 11.7004 -23.7573 main 760 760 P_____________ AL132000 11.7004 -23.7573 TD 30 1008 -1 15 285
2000266N12337 2000 88 NA NA ISAAC 2000-09-21 18:00:00 TS 11.9000 -24.5000 30 1008 hurdat_atl main 820 820 O_____________ hurdat_atl AL132000 11.9000 -24.5000 TD 30 1008 -1 15 286
2000266N12337 2000 88 NA NA ISAAC 2000-09-21 21:00:00 TS 12.0998 -25.2151 main 882 882 P_____________ AL132000 12.0998 -25.2151 TD 32 1006 -1 14 286
2000266N12337 2000 88 NA NA ISAAC 2000-09-22 00:00:00 TS 12.3000 -25.9000 35 1005 hurdat_atl main 947 947 O_____________ hurdat_atl AL132000 12.3000 -25.9000 TS 35 1005 0 14 287
2000266N12337 2000 88 NA NA ISAAC 2000-09-22 03:00:00 TS 12.4997 -26.5427 main 1003 1003 P_____________ AL132000 12.4997 -26.5427 TS 37 1003 0 13 287
2000266N12337 2000 88 NA NA ISAAC 2000-09-22 06:00:00 TS 12.7000 -27.2000 40 1001 hurdat_atl main 1071 1071 O_____________ hurdat_atl AL132000 12.7000 -27.2000 TS 40 1001 0 14 286
2000266N12337 2000 88 NA NA ISAAC 2000-09-22 09:00:00 TS 12.9000 -27.9426 main 1141 1141 P_____________ AL132000 12.9000 -27.9426 TS 42 1000 0 15 285
2000266N12337 2000 88 NA NA ISAAC 2000-09-22 12:00:00 TS 13.1000 -28.7000 45 1000 hurdat_atl main 1222 1222 O_____________ hurdat_atl AL132000 13.1000 -28.7000 TS 45 1000 0 15 286
2000266N12337 2000 88 NA NA ISAAC 2000-09-22 15:00:00 TS 13.3149 -29.4299 main 1293 1293 P_____________ AL132000 13.3149 -29.4299 TS 45 1000 0 14 286
2000266N12337 2000 88 NA NA ISAAC 2000-09-22 18:00:00 TS 13.5000 -30.1000 45 1000 hurdat_atl main 1365 1365 O_____________ hurdat_atl AL132000 13.5000 -30.1000 TS 45 1000 0 12 284
2000266N12337 2000 88 NA NA ISAAC 2000-09-22 21:00:00 TS 13.6147 -30.6727 main 1429 1429 P_____________ AL132000 13.6147 -30.6727 TS 47 998 0 11 281
2000266N12337 2000 88 NA NA ISAAC 2000-09-23 00:00:00 TS 13.7000 -31.2000 50 997 hurdat_atl main 1481 1481 O_____________ hurdat_atl AL132000 13.7000 -31.2000 TS 50 997 0 11 279
2000266N12337 2000 88 NA NA ISAAC 2000-09-23 03:00:00 TS 13.7850 -31.7651 main 1544 1544 P_____________ AL132000 13.7850 -31.7651 TS 52 995 0 11 281
2000266N12337 2000 88 NA NA ISAAC 2000-09-23 06:00:00 TS 13.9000 -32.3000 55 994 hurdat_atl main 1597 1597 O_____________ hurdat_atl AL132000 13.9000 -32.3000 TS 55 994 0 10 288
2000266N12337 2000 88 NA NA ISAAC 2000-09-23 09:00:00 TS 14.0923 -32.7575 main 1649 1649 P_____________ AL132000 14.0923 -32.7575 TS 62 989 0 10 295
2000266N12337 2000 88 NA NA ISAAC 2000-09-23 12:00:00 TS 14.3000 -33.2000 70 984 hurdat_atl main 1691 1691 O_____________ hurdat_atl AL132000 14.3000 -33.2000 HU 70 984 1 10 292
2000266N12337 2000 88 NA NA ISAAC 2000-09-23 15:00:00 TS 14.4575 -33.7076 main 1743 1743 P_____________ AL132000 14.4575 -33.7076 HU 77 978 1 10 287
2000266N12337 2000 88 NA NA ISAAC 2000-09-23 18:00:00 TS 14.6000 -34.2000 85 973 hurdat_atl main 1797 1797 O_____________ hurdat_atl AL132000 14.6000 -34.2000 HU 85 973 2 9 289
2000266N12337 2000 88 NA NA ISAAC 2000-09-23 21:00:00 TS 14.7573 -34.6150 main 1839 1839 P_____________ AL132000 14.7573 -34.6150 HU 95 966 2 8 291
2000266N12337 2000 88 NA NA ISAAC 2000-09-24 00:00:00 TS 14.9000 -35.0000 105 960 hurdat_atl main 1881 1881 O_____________ hurdat_atl AL132000 14.9000 -35.0000 HU 105 960 3 8 288
2000266N12337 2000 88 NA NA ISAAC 2000-09-24 03:00:00 TS 14.9923 -35.3852 main 1924 1924 P_____________ AL132000 14.9923 -35.3852 HU 102 960 3 8 285
2000266N12337 2000 88 NA NA ISAAC 2000-09-24 06:00:00 TS 15.1000 -35.8000 100 960 hurdat_atl main 1967 1967 O_____________ hurdat_atl AL132000 15.1000 -35.8000 HU 100 960 3 9 289
2000266N12337 2000 88 NA NA ISAAC 2000-09-24 09:00:00 TS 15.2925 -36.2849 main 2020 2020 P_____________ AL132000 15.2925 -36.2849 HU 100 960 3 10 293
2000266N12337 2000 88 NA NA ISAAC 2000-09-24 12:00:00 TS 15.5000 -36.8000 100 960 hurdat_atl main 2022 1986 O_____________ hurdat_atl AL132000 15.5000 -36.8000 HU 100 960 3 11 289
2000266N12337 2000 88 NA NA ISAAC 2000-09-24 15:00:00 TS 15.6425 -37.3152 main 1986 1959 P_____________ AL132000 15.6425 -37.3152 HU 100 960 3 10 287
2000266N12337 2000 88 NA NA ISAAC 2000-09-24 18:00:00 TS 15.8000 -37.8000 100 960 hurdat_atl main 1959 1941 O_____________ hurdat_atl AL132000 15.8000 -37.8000 HU 100 960 3 9 295
2000266N12337 2000 88 NA NA ISAAC 2000-09-24 21:00:00 TS 16.0423 -38.2075 main 1941 1931 P_____________ AL132000 16.0423 -38.2075 HU 97 962 3 9 303
2000266N12337 2000 88 NA NA ISAAC 2000-09-25 00:00:00 TS 16.3000 -38.6000 95 965 hurdat_atl main 1931 1916 O_____________ hurdat_atl AL132000 16.3000 -38.6000 HU 95 965 2 9 300
2000266N12337 2000 88 NA NA ISAAC 2000-09-25 03:00:00 TS 16.4999 -39.0427 main 1916 1893 P_____________ AL132000 16.4999 -39.0427 HU 95 965 2 10 295
2000266N12337 2000 88 NA NA ISAAC 2000-09-25 06:00:00 TS 16.7000 -39.5000 95 965 hurdat_atl main 1894 1880 O_____________ hurdat_atl AL132000 16.7000 -39.5000 HU 95 965 2 10 297
2000266N12337 2000 88 NA NA ISAAC 2000-09-25 09:00:00 TS 16.9499 -39.9575 main 1874 1869 P_____________ AL132000 16.9499 -39.9575 HU 92 967 2 10 300
2000266N12337 2000 88 NA NA ISAAC 2000-09-25 12:00:00 TS 17.2000 -40.4000 90 970 hurdat_atl main 1870 1858 O_____________ hurdat_atl AL132000 17.2000 -40.4000 HU 90 970 2 9 300
2000266N12337 2000 88 NA NA ISAAC 2000-09-25 15:00:00 TS 17.4149 -40.8076 main 1860 1849 P_____________ AL132000 17.4149 -40.8076 HU 90 970 2 9 298
2000266N12337 2000 88 NA NA ISAAC 2000-09-25 18:00:00 TS 17.6000 -41.2000 90 970 hurdat_atl main 1851 1835 O_____________ hurdat_atl AL132000 17.6000 -41.2000 HU 90 970 2 8 294
2000266N12337 2000 88 NA NA ISAAC 2000-09-25 21:00:00 TS 17.7499 -41.5927 main 1835 1825 P_____________ AL132000 17.7499 -41.5927 HU 90 970 2 8 292
2000266N12337 2000 88 NA NA ISAAC 2000-09-26 00:00:00 TS 17.9000 -42.0000 90 970 hurdat_atl main 1829 1819 O_____________ hurdat_atl AL132000 17.9000 -42.0000 HU 90 970 2 9 294
2000266N12337 2000 88 NA NA ISAAC 2000-09-26 03:00:00 TS 18.0999 -42.4350 main 1821 1803 P_____________ AL132000 18.0999 -42.4350 HU 87 971 2 9 295
2000266N12337 2000 88 NA NA ISAAC 2000-09-26 06:00:00 TS 18.3000 -42.9000 85 973 hurdat_atl main 1806 1784 O_____________ hurdat_atl AL132000 18.3000 -42.9000 HU 85 973 2 10 291
2000266N12337 2000 88 NA NA ISAAC 2000-09-26 09:00:00 TS 18.4424 -43.3853 main 1784 1769 P_____________ AL132000 18.4424 -43.3853 HU 80 976 1 10 288
2000266N12337 2000 88 NA NA ISAAC 2000-09-26 12:00:00 TS 18.6000 -43.9000 75 980 hurdat_atl main 1773 1763 O_____________ hurdat_atl AL132000 18.6000 -43.9000 HU 75 980 1 11 291
2000266N12337 2000 88 NA NA ISAAC 2000-09-26 15:00:00 TS 18.8350 -44.4500 main 1763 1756 P_____________ AL132000 18.8350 -44.4500 HU 75 980 1 12 296
2000266N12337 2000 88 NA NA ISAAC 2000-09-26 18:00:00 TS 19.1000 -45.0000 75 980 hurdat_atl main 1761 1755 O_____________ hurdat_atl AL132000 19.1000 -45.0000 HU 75 980 1 11 296
2000266N12337 2000 88 NA NA ISAAC 2000-09-26 21:00:00 TS 19.3273 -45.5079 main 1755 1755 P_____________ AL132000 19.3273 -45.5079 HU 77 978 1 11 298
2000266N12337 2000 88 NA NA ISAAC 2000-09-27 00:00:00 TS 19.6000 -46.0000 80 977 hurdat_atl main 1762 1757 O_____________ hurdat_atl AL132000 19.6000 -46.0000 HU 80 977 1 11 306
2000266N12337 2000 88 NA NA ISAAC 2000-09-27 03:00:00 TS 19.9923 -46.4925 main 1781 1781 P_____________ AL132000 19.9923 -46.4925 HU 82 975 1 12 310
2000266N12337 2000 88 NA NA ISAAC 2000-09-27 06:00:00 TS 20.4000 -47.0000 85 973 hurdat_atl main 1800 1795 O_____________ hurdat_atl AL132000 20.4000 -47.0000 HU 85 973 2 12 306
2000266N12337 2000 88 NA NA ISAAC 2000-09-27 09:00:00 TS 20.6922 -47.5208 main 1807 1796 P_____________ AL132000 20.6922 -47.5208 HU 87 971 2 12 300
2000266N12337 2000 88 NA NA ISAAC 2000-09-27 12:00:00 TS 21.0000 -48.1000 90 970 hurdat_atl main 1796 1768 O_____________ hurdat_atl AL132000 21.0000 -48.1000 HU 90 970 2 14 302
2000266N12337 2000 88 NA NA ISAAC 2000-09-27 15:00:00 TS 21.4277 -48.7998 main 1768 1724 P_____________ AL132000 21.4277 -48.7998 HU 92 967 2 16 305
2000266N12337 2000 88 NA NA ISAAC 2000-09-27 18:00:00 TS 21.9000 -49.5000 95 965 hurdat_atl main 1724 1682 O_____________ hurdat_atl AL132000 21.9000 -49.5000 HU 95 965 2 15 308
2000266N12337 2000 88 NA NA ISAAC 2000-09-27 21:00:00 TS 22.3418 -50.0509 main 1672 1635 P_____________ AL132000 22.3418 -50.0509 HU 97 962 3 14 312
2000266N12337 2000 88 NA NA ISAAC 2000-09-28 00:00:00 TS 22.8000 -50.6000 100 960 hurdat_atl main 1635 1582 O_____________ hurdat_atl AL132000 22.8000 -50.6000 HU 100 960 3 15 309
2000266N12337 2000 88 NA NA ISAAC 2000-09-28 03:00:00 TS 23.2779 -51.3149 main 1582 1533 P_____________ AL132000 23.2779 -51.3149 HU 102 957 3 16 308
2000266N12337 2000 88 NA NA ISAAC 2000-09-28 06:00:00 TS 23.8000 -52.0000 105 955 hurdat_atl main 1533 1512 O_____________ hurdat_atl AL132000 23.8000 -52.0000 HU 105 955 3 15 316
2000266N12337 2000 88 NA NA ISAAC 2000-09-28 09:00:00 TS 24.3542 -52.4591 main 1511 1502 P_____________ AL132000 24.3542 -52.4591 HU 107 952 3 15 326
2000266N12337 2000 88 NA NA ISAAC 2000-09-28 12:00:00 TS 25.0000 -52.9000 110 950 hurdat_atl main 1503 1488 O_____________ hurdat_atl AL132000 25.0000 -52.9000 HU 110 950 3 17 325
2000266N12337 2000 88 NA NA ISAAC 2000-09-28 15:00:00 TS 25.7854 -53.5491 main 1494 1480 P_____________ AL132000 25.7854 -53.5491 HU 115 946 4 20 324
2000266N12337 2000 88 NA NA ISAAC 2000-09-28 18:00:00 TS 26.6000 -54.2000 120 943 hurdat_atl main 1485 1482 O_____________ hurdat_atl AL132000 26.6000 -54.2000 HU 120 943 4 18 326
2000266N12337 2000 88 NA NA ISAAC 2000-09-28 21:00:00 TS 27.2921 -54.6889 main 1493 1493 P_____________ AL132000 27.2921 -54.6889 HU 117 945 4 16 330
2000266N12337 2000 88 NA NA ISAAC 2000-09-29 00:00:00 TS 28.0000 -55.1000 115 948 hurdat_atl main 1515 1515 O_____________ hurdat_atl AL132000 28.0000 -55.1000 HU 115 948 4 17 334
2000266N12337 2000 88 NA NA ISAAC 2000-09-29 03:00:00 TS 28.8426 -55.5445 main 1550 1550 P_____________ AL132000 28.8426 -55.5445 HU 112 949 3 18 338
2000266N12337 2000 88 NA NA ISAAC 2000-09-29 06:00:00 TS 29.7000 -55.9000 110 950 hurdat_atl main 1599 1599 O_____________ hurdat_atl AL132000 29.7000 -55.9000 HU 110 950 3 17 342
2000266N12337 2000 88 NA NA ISAAC 2000-09-29 09:00:00 TS 30.4498 -56.1326 main 1648 1585 P_____________ AL132000 30.4498 -56.1326 HU 107 952 3 15 350
2000266N12337 2000 88 NA NA ISAAC 2000-09-29 12:00:00 TS 31.2000 -56.2000 105 955 hurdat_atl main 1585 1511 O_____________ hurdat_atl AL132000 31.2000 -56.2000 HU 105 955 3 16 1
2000266N12337 2000 88 NA NA ISAAC 2000-09-29 15:00:00 TS 32.0499 -56.1252 main 1511 1434 P_____________ AL132000 32.0499 -56.1252 HU 97 960 3 17 8
2000266N12337 2000 88 NA NA ISAAC 2000-09-29 18:00:00 TS 32.9000 -55.9000 90 965 hurdat_atl main 1434 1370 O_____________ hurdat_atl AL132000 32.9000 -55.9000 HU 90 965 2 17 15
2000266N12337 2000 88 NA NA ISAAC 2000-09-29 21:00:00 TS 33.6797 -55.6168 main 1363 1301 P_____________ AL132000 33.6797 -55.6168 HU 87 967 2 16 21
2000266N12337 2000 88 NA NA ISAAC 2000-09-30 00:00:00 TS 34.4000 -55.2000 85 970 hurdat_atl main 1301 1253 O_____________ hurdat_atl AL132000 34.4000 -55.2000 HU 85 970 2 16 28
2000266N12337 2000 88 NA NA ISAAC 2000-09-30 03:00:00 TS 35.0637 -54.7103 main 1246 1213 P_____________ AL132000 35.0637 -54.7103 HU 82 972 1 16 37
2000266N12337 2000 88 NA NA ISAAC 2000-09-30 06:00:00 TS 35.7000 -54.0000 80 975 hurdat_atl main 1213 1145 O_____________ hurdat_atl AL132000 35.7000 -54.0000 HU 80 975 1 19 48
2000266N12337 2000 88 NA NA ISAAC 2000-09-30 09:00:00 TS 36.3512 -52.9603 main 1134 1073 P_____________ AL132000 36.3512 -52.9603 HU 77 977 1 22 54
2000266N12337 2000 88 NA NA ISAAC 2000-09-30 12:00:00 TS 37.0000 -51.8000 75 979 hurdat_atl main 1074 1018 O_____________ hurdat_atl AL132000 37.0000 -51.8000 HU 75 979 1 22 54
2000266N12337 2000 88 NA NA ISAAC 2000-09-30 15:00:00 TS 37.6414 -50.7753 main 1020 961 P_____________ AL132000 37.6414 -50.7753 HU 72 982 1 20 51
2000266N12337 2000 88 NA NA ISAAC 2000-09-30 18:00:00 TS 38.3000 -49.8000 70 985 hurdat_atl main 963 914 O_____________ hurdat_atl AL132000 38.3000 -49.8000 HU 70 985 1 20 48
2000266N12337 2000 88 NA NA ISAAC 2000-09-30 21:00:00 TS 39.0060 -48.8632 main 914 874 P_____________ AL132000 39.0060 -48.8632 HU 67 986 1 20 47
2000266N12337 2000 88 NA NA ISAAC 2000-10-01 00:00:00 TS 39.7000 -47.9000 65 987 hurdat_atl main 878 863 O_____________ hurdat_atl AL132000 39.7000 -47.9000 HU 65 987 1 20 50
2000266N12337 2000 88 NA NA ISAAC 2000-10-01 03:00:00 TS 40.3148 -46.8132 main 868 864 P_____________ AL132000 40.3148 -46.8132 HU 62 988 0 21 54
2000266N12337 2000 88 NA NA ISAAC 2000-10-01 06:00:00 TS 40.9000 -45.7000 60 990 hurdat_atl main 872 869 O_____________ hurdat_atl AL132000 40.9000 -45.7000 TS 60 990 0 19 53
2000266N12337 2000 88 NA NA ISAAC 2000-10-01 09:00:00 TS 41.4786 -44.7845 main 875 875 P_____________ AL132000 41.4786 -44.7845 TS 57 990 0 20 53
2000266N12337 2000 88 NA NA ISAAC 2000-10-01 12:00:00 TS 42.1000 -43.6000 55 990 hurdat_atl main 907 907 O_____________ hurdat_atl AL132000 42.1000 -43.6000 TS 55 990 0 27 60
2000266N12337 2000 88 NA NA ISAAC 2000-10-01 15:00:00 TS 42.8221 -41.6240 main 998 998 P_____________ AL132000 42.8221 -41.6240 TS 55 990 0 33 65
2000266N12337 2000 88 NA NA ISAAC 2000-10-01 18:00:00 ET 43.5000 -39.5000 55 990 hurdat_atl main 1107 1107 O_____________ hurdat_atl AL132000 43.5000 -39.5000 EX 55 990 -4 29 66
2000266N12337 2000 88 NA NA ISAAC 2000-10-01 21:00:00 ET 44.0077 -37.9457 main 1198 1198 P_____________ AL132000 44.0077 -37.9457 EX 55 986 -4 24 65
2000266N12337 2000 88 NA NA ISAAC 2000-10-02 00:00:00 ET 44.5000 -36.5000 55 982 hurdat_atl main 1279 1279 O_____________ hurdat_atl AL132000 44.5000 -36.5000 EX 55 982 -4 25 64
2000266N12337 2000 88 NA NA ISAAC 2000-10-02 03:00:00 ET 45.0748 -34.8214 main 1384 1384 P_____________ AL132000 45.0748 -34.8214 EX 57 977 -4 27 64
2000266N12337 2000 88 NA NA ISAAC 2000-10-02 06:00:00 ET 45.7000 -33.0000 60 972 hurdat_atl main 1500 1500 O_____________ hurdat_atl AL132000 45.7000 -33.0000 EX 60 972 -4 29 65
2000266N12337 2000 88 NA NA ISAAC 2000-10-02 09:00:00 ET 46.3261 -31.0329 main 1607 1443 P_____________ AL132000 46.3261 -31.0329 EX 60 973 -4 30 65
2000266N12337 2000 88 NA NA ISAAC 2000-10-02 12:00:00 ET 47.0000 -29.0000 60 975 hurdat_atl main 1436 1274 O_____________ hurdat_atl AL132000 47.0000 -29.0000 EX 60 975 -4 31 62
2000266N12337 2000 88 NA NA ISAAC 2000-10-02 15:00:00 ET 47.7670 -27.0364 main 1262 1102 P_____________ AL132000 47.7670 -27.0364 EX 60 975 -4 31 61
2000266N12337 2000 88 NA NA ISAAC 2000-10-02 18:00:00 ET 48.5000 -25.0000 60 976 hurdat_atl main 1095 933 O_____________ hurdat_atl AL132000 48.5000 -25.0000 EX 60 976 -4 31 66
2000266N12337 2000 88 NA NA ISAAC 2000-10-02 21:00:00 ET 49.0372 -22.7432 main 920 758 P_____________ AL132000 49.0372 -22.7432 EX 60 976 -4 31 71
2000266N12337 2000 88 NA NA ISAAC 2000-10-03 00:00:00 ET 49.5000 -20.5000 60 976 hurdat_atl main 752 609 O_____________ hurdat_atl AL132000 49.5000 -20.5000 EX 60 976 -4 29 72
2000266N12337 2000 88 NA NA ISAAC 2000-10-03 03:00:00 ET 49.9552 -18.4884 main 599 453 P_____________ AL132000 49.9552 -18.4884 EX 60 977 -4 27 69
2000266N12337 2000 88 NA NA ISAAC 2000-10-03 06:00:00 ET 50.5000 -16.5000 60 978 hurdat_atl main 447 279 O_____________ hurdat_atl AL132000 50.5000 -16.5000 EX 60 978 -4 30 67
2000266N12337 2000 88 NA NA ISAAC 2000-10-03 09:00:00 ET 51.1039 -14.1674 main 273 111 P_____________ AL132000 51.1039 -14.1674 EX 57 980 -4 32 62
2000266N12337 2000 88 NA NA ISAAC 2000-10-03 12:00:00 ET 52.0000 -12.0000 55 982 hurdat_atl main 102 22 O_____________ hurdat_atl AL132000 52.0000 -12.0000 EX 55 982 -4 32 46
2000266N12337 2000 88 NA NA ISAAC 2000-10-03 15:00:00 ET 53.3808 -10.3814 main 13 0 P_____________ AL132000 53.3808 -10.3814 EX 50 985 -4 35 31
2000266N12337 2000 88 NA NA ISAAC 2000-10-03 18:00:00 ET 55.0000 -9.00000 45 988 hurdat_atl main 33 27 O_____________ hurdat_atl AL132000 55.0000 -9.00000 EX 45 988 -4 35 29
2000266N12337 2000 88 NA NA ISAAC 2000-10-03 21:00:00 ET 56.4257 -7.41547 main 80 0 P_____________ AL132000 56.4257 -7.41547 EX 45 988 -4 34 29
2000266N12337 2000 88 NA NA ISAAC 2000-10-04 00:00:00 ET 58.0000 -6.00000 45 989 hurdat_atl main 23 20 O_____________ hurdat_atl AL132000 58.0000 -6.00000 EX 45 989 -4 37 21
2000266N12337 2000 88 NA NA ISAAC 2000-10-04 03:00:00 ET 59.8995 -4.92019 main 154 154 P_____________ AL132000 59.8995 -4.92019 EX 45 991 -4 41 14
2000266N12337 2000 88 NA NA ISAAC 2000-10-04 06:00:00 ET 62.0000 -4.00000 45 994 hurdat_atl main 377 O_____________ hurdat_atl AL132000 62.0000 -4.00000 EX 45 994 -4 43 12

About IBTrACS Database

This database is a web-friendly format of International Best Track Archive for Climate Stewardship (IBTrACS), a global best track data archive curated by NOAA dating back to 1842.

Updated: 2021-12-06